sensor_id;sensor_type;location;lat;lon;timestamp;pressure;altitude;pressure_sealevel;temperature;humidity
20105;BME280;10212;42.714;23.310;2023-02-18T00:07:26;95931.09;;;1.55;68.24
20105;BME280;10212;42.714;23.310;2023-02-18T00:17:27;95920.72;;;1.46;68.53
20105;BME280;10212;42.714;23.310;2023-02-18T00:27:28;95900.38;;;1.32;69.08
20105;BME280;10212;42.714;23.310;2023-02-18T00:37:28;95880.59;;;1.33;69.76
20105;BME280;10212;42.714;23.310;2023-02-18T00:47:29;95884.03;;;1.65;68.44
20105;BME280;10212;42.714;23.310;2023-02-18T00:57:29;95881.25;;;1.47;68.87
20105;BME280;10212;42.714;23.310;2023-02-18T01:07:29;95880.53;;;1.23;69.22
20105;BME280;10212;42.714;23.310;2023-02-18T01:17:30;95872.63;;;0.93;71.29
20105;BME280;10212;42.714;23.310;2023-02-18T01:27:30;95870.59;;;0.76;71.37
20105;BME280;10212;42.714;23.310;2023-02-18T01:37:30;95869.44;;;0.57;72.25
20105;BME280;10212;42.714;23.310;2023-02-18T01:47:31;95881.16;;;0.27;73.65
20105;BME280;10212;42.714;23.310;2023-02-18T01:57:35;95890.78;;;0.02;74.86
20105;BME280;10212;42.714;23.310;2023-02-18T02:07:37;95878.41;;;-0.05;75.71
20105;BME280;10212;42.714;23.310;2023-02-18T02:17:58;95879.94;;;-0.02;76.30
20105;BME280;10212;42.714;23.310;2023-02-18T02:39:07;95872.22;;;0.09;76.31
20105;BME280;10212;42.714;23.310;2023-02-18T02:49:52;95851.09;;;0.29;75.39
20105;BME280;10212;42.714;23.310;2023-02-18T03:00:02;95881.25;;;0.48;74.03
20105;BME280;10212;42.714;23.310;2023-02-18T03:30:15;95906.81;;;-0.31;75.51
20105;BME280;10212;42.714;23.310;2023-02-18T03:40:17;95929.19;;;-0.69;77.33
20105;BME280;10212;42.714;23.310;2023-02-18T03:50:18;95917.63;;;-0.86;78.36
20105;BME280;10212;42.714;23.310;2023-02-18T04:00:19;95922.44;;;-1.06;80.25
20105;BME280;10212;42.714;23.310;2023-02-18T04:10:20;95916.38;;;-0.80;80.44
20105;BME280;10212;42.714;23.310;2023-02-18T04:20:21;95902.72;;;-0.45;79.35
20105;BME280;10212;42.714;23.310;2023-02-18T04:30:22;95889.59;;;-0.17;78.80
20105;BME280;10212;42.714;23.310;2023-02-18T04:40:22;95899.84;;;-0.06;78.19
20105;BME280;10212;42.714;23.310;2023-02-18T04:50:24;95907.78;;;-0.09;78.83
20105;BME280;10212;42.714;23.310;2023-02-18T05:00:25;95919.91;;;0.01;77.60
20105;BME280;10212;42.714;23.310;2023-02-18T05:10:27;95915.69;;;-0.12;78.40
20105;BME280;10212;42.714;23.310;2023-02-18T05:20:28;95884.94;;;-0.01;78.54
20105;BME280;10212;42.714;23.310;2023-02-18T05:30:28;95899.03;;;0.17;78.03
20105;BME280;10212;42.714;23.310;2023-02-18T05:40:29;95898.03;;;0.64;76.50
20105;BME280;10212;42.714;23.310;2023-02-18T05:50:29;95914.63;;;0.92;75.36
20105;BME280;10212;42.714;23.310;2023-02-18T06:00:30;95919.94;;;1.12;74.03
20105;BME280;10212;42.714;23.310;2023-02-18T06:10:31;95916.03;;;0.96;74.68
20105;BME280;10212;42.714;23.310;2023-02-18T06:20:31;95918.34;;;1.54;73.11
20105;BME280;10212;42.714;23.310;2023-02-18T06:30:32;95886.84;;;1.83;73.85
20105;BME280;10212;42.714;23.310;2023-02-18T06:40:32;95903.44;;;2.41;71.57
20105;BME280;10212;42.714;23.310;2023-02-18T06:50:33;95895.38;;;2.96;69.55
20105;BME280;10212;42.714;23.310;2023-02-18T07:00:33;95902.59;;;3.22;68.26
20105;BME280;10212;42.714;23.310;2023-02-18T07:10:33;95905.81;;;3.64;66.45
20105;BME280;10212;42.714;23.310;2023-02-18T07:20:34;95893.94;;;3.91;65.92
20105;BME280;10212;42.714;23.310;2023-02-18T07:30:34;95885.06;;;4.60;63.71
20105;BME280;10212;42.714;23.310;2023-02-18T07:40:34;95897.75;;;4.53;62.55
20105;BME280;10212;42.714;23.310;2023-02-18T07:50:37;95895.41;;;4.96;61.51
20105;BME280;10212;42.714;23.310;2023-02-18T08:00:38;95883.25;;;5.51;60.31
20105;BME280;10212;42.714;23.310;2023-02-18T08:10:38;95886.44;;;6.25;57.88
20105;BME280;10212;42.714;23.310;2023-02-18T08:20:38;95865.09;;;7.16;55.76
20105;BME280;10212;42.714;23.310;2023-02-18T08:30:46;95850.72;;;7.87;52.49
20105;BME280;10212;42.714;23.310;2023-02-18T08:40:47;95853.84;;;8.86;49.28
20105;BME280;10212;42.714;23.310;2023-02-18T08:50:48;95863.22;;;8.96;47.46
20105;BME280;10212;42.714;23.310;2023-02-18T09:00:48;95857.00;;;9.05;46.72
20105;BME280;10212;42.714;23.310;2023-02-18T09:10:49;95858.75;;;8.89;46.91
20105;BME280;10212;42.714;23.310;2023-02-18T09:20:58;95856.59;;;8.93;46.75
20105;BME280;10212;42.714;23.310;2023-02-18T09:31:10;95828.56;;;9.57;46.38
20105;BME280;10212;42.714;23.310;2023-02-18T09:51:27;95831.47;;;11.48;41.62
20105;BME280;10212;42.714;23.310;2023-02-18T10:01:31;95808.50;;;11.43;39.51
20105;BME280;10212;42.714;23.310;2023-02-18T10:11:39;95793.88;;;11.77;37.17
20105;BME280;10212;42.714;23.310;2023-02-18T10:21:40;95770.34;;;12.20;36.44
20105;BME280;10212;42.714;23.310;2023-02-18T10:31:45;95765.56;;;12.37;35.01
20105;BME280;10212;42.714;23.310;2023-02-18T10:52:20;95732.63;;;13.03;33.12
20105;BME280;10212;42.714;23.310;2023-02-18T11:02:23;95716.06;;;13.30;32.53
20105;BME280;10212;42.714;23.310;2023-02-18T11:12:31;95727.78;;;13.27;32.95
20105;BME280;10212;42.714;23.310;2023-02-18T11:22:38;95701.63;;;12.60;33.88
20105;BME280;10212;42.714;23.310;2023-02-18T11:32:41;95685.34;;;12.64;34.47
20105;BME280;10212;42.714;23.310;2023-02-18T11:42:42;95663.31;;;13.20;34.10
20105;BME280;10212;42.714;23.310;2023-02-18T11:52:48;95652.78;;;13.40;33.98
20105;BME280;10212;42.714;23.310;2023-02-18T12:02:50;95648.66;;;13.71;34.86
20105;BME280;10212;42.714;23.310;2023-02-18T12:12:53;95638.41;;;14.09;34.81
20105;BME280;10212;42.714;23.310;2023-02-18T12:23:25;95625.31;;;14.02;35.64
20105;BME280;10212;42.714;23.310;2023-02-18T13:14:59;95575.59;;;14.91;34.06
20105;BME280;10212;42.714;23.310;2023-02-18T13:25:02;95578.44;;;14.38;35.87
20105;BME280;10212;42.714;23.310;2023-02-18T13:55:41;95558.00;;;13.96;36.52
20105;BME280;10212;42.714;23.310;2023-02-18T14:05:45;95572.84;;;13.77;36.44
20105;BME280;10212;42.714;23.310;2023-02-18T14:15:53;95568.94;;;13.54;37.13
20105;BME280;10212;42.714;23.310;2023-02-18T14:25:57;95575.59;;;13.49;37.50
20105;BME280;10212;42.714;23.310;2023-02-18T14:56:58;95560.97;;;13.21;38.71
20105;BME280;10212;42.714;23.310;2023-02-18T15:07:04;95570.97;;;12.92;38.99
20105;BME280;10212;42.714;23.310;2023-02-18T15:17:27;95565.59;;;12.60;40.24
20105;BME280;10212;42.714;23.310;2023-02-18T15:27:32;95548.72;;;12.35;40.67
20105;BME280;10212;42.714;23.310;2023-02-18T15:37:34;95548.31;;;12.04;41.44
20105;BME280;10212;42.714;23.310;2023-02-18T15:47:43;95539.81;;;11.75;43.01
20105;BME280;10212;42.714;23.310;2023-02-18T15:57:45;95550.59;;;11.45;43.81
20105;BME280;10212;42.714;23.310;2023-02-18T16:07:51;95537.47;;;11.18;44.60
20105;BME280;10212;42.714;23.310;2023-02-18T16:17:52;95553.25;;;10.96;45.98
20105;BME280;10212;42.714;23.310;2023-02-18T16:38:02;95554.38;;;10.51;47.94
20105;BME280;10212;42.714;23.310;2023-02-18T16:48:04;95575.88;;;10.31;48.54
20105;BME280;10212;42.714;23.310;2023-02-18T16:58:04;95571.19;;;10.20;48.78
20105;BME280;10212;42.714;23.310;2023-02-18T17:08:24;95555.56;;;9.98;49.15
20105;BME280;10212;42.714;23.310;2023-02-18T17:18:25;95562.09;;;9.87;49.75
20105;BME280;10212;42.714;23.310;2023-02-18T17:28:26;95558.97;;;9.76;49.79
20105;BME280;10212;42.714;23.310;2023-02-18T17:38:26;95558.72;;;9.71;49.92
20105;BME280;10212;42.714;23.310;2023-02-18T17:48:27;95548.06;;;9.66;49.66
20105;BME280;10212;42.714;23.310;2023-02-18T17:58:28;95527.00;;;9.39;50.45
20105;BME280;10212;42.714;23.310;2023-02-18T18:08:29;95528.66;;;9.25;50.40
20105;BME280;10212;42.714;23.310;2023-02-18T18:18:30;95519.59;;;9.21;50.66
20105;BME280;10212;42.714;23.310;2023-02-18T18:28:30;95522.69;;;8.94;51.90
20105;BME280;10212;42.714;23.310;2023-02-18T18:38:32;95521.63;;;8.73;52.71
20105;BME280;10212;42.714;23.310;2023-02-18T18:48:33;95524.19;;;8.88;51.92
20105;BME280;10212;42.714;23.310;2023-02-18T18:58:33;95511.91;;;8.97;51.57
20105;BME280;10212;42.714;23.310;2023-02-18T19:08:34;95500.72;;;8.97;51.78
20105;BME280;10212;42.714;23.310;2023-02-18T19:18:35;95522.75;;;8.40;53.63
20105;BME280;10212;42.714;23.310;2023-02-18T19:28:35;95519.81;;;7.90;54.81
20105;BME280;10212;42.714;23.310;2023-02-18T19:38:36;95525.06;;;7.58;55.97
20105;BME280;10212;42.714;23.310;2023-02-18T19:48:37;95524.47;;;7.94;55.07
20105;BME280;10212;42.714;23.310;2023-02-18T19:58:37;95519.53;;;8.38;53.84
20105;BME280;10212;42.714;23.310;2023-02-18T20:08:41;95527.34;;;8.38;53.79
20105;BME280;10212;42.714;23.310;2023-02-18T20:18:41;95518.09;;;8.20;53.69
20105;BME280;10212;42.714;23.310;2023-02-18T20:28:42;95515.94;;;7.86;55.06
20105;BME280;10212;42.714;23.310;2023-02-18T20:38:43;95515.78;;;7.40;56.73
20105;BME280;10212;42.714;23.310;2023-02-18T20:48:49;95525.56;;;6.98;58.04
20105;BME280;10212;42.714;23.310;2023-02-18T20:58:50;95526.13;;;6.77;59.54
20105;BME280;10212;42.714;23.310;2023-02-18T21:08:52;95510.00;;;6.58;60.36
20105;BME280;10212;42.714;23.310;2023-02-18T21:18:53;95515.19;;;6.58;60.30
20105;BME280;10212;42.714;23.310;2023-02-18T21:28:57;95514.09;;;6.44;60.58
20105;BME280;10212;42.714;23.310;2023-02-18T21:38:59;95505.56;;;6.18;61.74
20105;BME280;10212;42.714;23.310;2023-02-18T21:49:01;95507.50;;;5.99;62.67
20105;BME280;10212;42.714;23.310;2023-02-18T21:59:02;95493.44;;;5.77;63.95
20105;BME280;10212;42.714;23.310;2023-02-18T22:09:04;95496.53;;;5.64;64.04
20105;BME280;10212;42.714;23.310;2023-02-18T22:19:05;95480.81;;;5.82;62.68
20105;BME280;10212;42.714;23.310;2023-02-18T22:29:06;95492.63;;;5.93;62.23
20105;BME280;10212;42.714;23.310;2023-02-18T22:39:07;95484.06;;;5.67;63.77
20105;BME280;10212;42.714;23.310;2023-02-18T22:49:07;95486.16;;;5.55;64.78
20105;BME280;10212;42.714;23.310;2023-02-18T22:59:09;95479.38;;;5.46;65.33
20105;BME280;10212;42.714;23.310;2023-02-18T23:09:18;95485.31;;;5.13;66.53
20105;BME280;10212;42.714;23.310;2023-02-18T23:19:20;95475.13;;;5.03;66.37
20105;BME280;10212;42.714;23.310;2023-02-18T23:29:20;95461.47;;;4.76;67.41
20105;BME280;10212;42.714;23.310;2023-02-18T23:39:21;95468.53;;;4.57;67.92
20105;BME280;10212;42.714;23.310;2023-02-18T23:49:23;95471.81;;;4.76;67.47
20105;BME280;10212;42.714;23.310;2023-02-18T23:59:24;95464.03;;;4.68;67.84
